createdAt,value
2022-10-03T00:00:31.413Z,100.00
2022-10-03T00:03:33.943Z,100.00
2022-10-03T00:06:31.698Z,100.00
2022-10-03T00:09:11.489Z,100.00
2022-10-03T00:12:01.468Z,100.00
2022-10-03T00:14:41.004Z,100.00
2022-10-03T00:17:20.670Z,100.00
2022-10-03T00:20:06.555Z,100.00
2022-10-03T00:22:40.380Z,100.00
2022-10-03T00:25:32.640Z,100.00
2022-10-03T00:28:22.028Z,100.00
2022-10-03T00:31:09.374Z,100.00
2022-10-03T00:34:11.389Z,100.00
2022-10-03T00:37:05.510Z,100.00
2022-10-03T00:40:09.557Z,100.00
2022-10-03T00:43:15.451Z,100.00
2022-10-03T00:46:11.457Z,100.00
2022-10-03T00:48:50.989Z,100.00
2022-10-03T00:52:16.486Z,100.00
2022-10-03T00:55:01.829Z,100.00
2022-10-03T00:57:55.505Z,100.00
2022-10-03T01:00:29.748Z,100.00
2022-10-03T01:03:22.550Z,100.00
2022-10-03T01:05:59.778Z,100.00
2022-10-03T01:08:57.277Z,100.00
2022-10-03T01:11:34.132Z,100.00
2022-10-03T01:14:37.538Z,100.00
2022-10-03T01:17:32.051Z,100.00
2022-10-03T01:20:22.693Z,100.00
2022-10-03T01:22:52.969Z,100.00
2022-10-03T01:25:26.699Z,100.00
2022-10-03T01:28:42.872Z,100.00
2022-10-03T01:31:14.872Z,100.00
2022-10-03T01:33:49.448Z,100.00
2022-10-03T01:36:35.250Z,100.00
2022-10-03T01:39:07.857Z,100.00
2022-10-03T01:42:05.047Z,100.00
2022-10-03T01:44:54.243Z,100.00
2022-10-03T01:47:40.604Z,100.00
2022-10-03T01:50:27.138Z,100.00
2022-10-03T01:53:24.163Z,100.00
2022-10-03T01:55:52.147Z,100.00
2022-10-03T01:58:23.649Z,100.00
2022-10-03T02:01:20.557Z,100.00
2022-10-03T02:04:04.443Z,100.00
2022-10-03T02:06:45.105Z,100.00
2022-10-03T02:09:28.055Z,100.00
2022-10-03T02:12:23.906Z,100.00
2022-10-03T02:15:12.185Z,100.00
2022-10-03T02:18:00.888Z,100.00
2022-10-03T02:20:34.476Z,100.00
2022-10-03T02:23:02.969Z,100.00
2022-10-03T02:25:36.479Z,100.00
2022-10-03T02:28:10.389Z,100.00
2022-10-03T02:31:23.925Z,100.00
2022-10-03T02:34:10.048Z,100.00
2022-10-03T02:37:08.338Z,100.00
2022-10-03T02:39:51.069Z,100.00
2022-10-03T02:42:37.385Z,100.00
2022-10-03T02:45:31.307Z,100.00
2022-10-03T02:48:19.751Z,100.00
2022-10-03T02:50:52.876Z,100.00
2022-10-03T02:53:39.654Z,100.00
2022-10-03T02:56:38.807Z,100.00
2022-10-03T02:59:30.693Z,100.00
2022-10-03T03:02:31.053Z,100.00
2022-10-03T03:05:17.877Z,100.00
2022-10-03T03:08:01.002Z,100.00
2022-10-03T03:10:41.127Z,100.00
2022-10-03T03:13:31.863Z,100.00
2022-10-03T03:16:34.456Z,100.00
2022-10-03T03:19:12.478Z,100.00
2022-10-03T03:22:18.506Z,100.00
2022-10-03T03:25:03.841Z,100.00
2022-10-03T03:27:31.746Z,100.00
2022-10-03T03:30:09.969Z,100.00
2022-10-03T03:32:53.245Z,100.00
2022-10-03T03:35:46.753Z,100.00
2022-10-03T03:38:26.181Z,100.00
2022-10-03T03:41:14.641Z,100.00
2022-10-03T03:43:59.485Z,100.00
2022-10-03T03:47:02.362Z,100.00
2022-10-03T03:49:48.505Z,100.00
2022-10-03T03:52:37.515Z,100.00
2022-10-03T03:55:15.266Z,100.00
2022-10-03T03:57:59.865Z,100.00
2022-10-03T04:00:46.447Z,100.00
2022-10-03T04:03:20.505Z,100.00
2022-10-03T04:05:54.323Z,100.00
2022-10-03T04:08:42.131Z,100.00
2022-10-03T04:11:31.591Z,100.00
2022-10-03T04:14:38.285Z,100.00
2022-10-03T04:17:42.872Z,100.00
2022-10-03T04:20:16.096Z,100.00
2022-10-03T04:22:58.048Z,100.00
2022-10-03T04:25:32.074Z,100.00
2022-10-03T04:28:27.002Z,100.00
2022-10-03T04:31:07.239Z,100.00
2022-10-03T04:33:43.434Z,100.00
2022-10-03T04:36:46.185Z,100.00
2022-10-03T04:39:36.863Z,100.00
2022-10-03T04:42:41.018Z,100.00
2022-10-03T04:45:36.939Z,100.00
2022-10-03T04:48:16.711Z,100.00
2022-10-03T04:51:29.960Z,100.00
2022-10-03T04:54:30.838Z,100.00
2022-10-03T04:57:36.086Z,100.00
2022-10-03T05:00:30.283Z,100.00
2022-10-03T05:03:07.683Z,100.00
2022-10-03T05:06:07.495Z,100.00
2022-10-03T05:08:58.813Z,100.00
2022-10-03T05:11:48.295Z,100.00
2022-10-03T05:14:32.541Z,100.00
2022-10-03T05:17:19.808Z,100.00
2022-10-03T05:19:54.042Z,100.00
2022-10-03T05:22:28.602Z,100.00
2022-10-03T05:25:02.532Z,100.00
2022-10-03T05:27:52.005Z,100.00
2022-10-03T05:30:35.486Z,100.00
2022-10-03T05:33:25.209Z,100.00
2022-10-03T05:36:18.702Z,100.00
2022-10-03T05:38:58.813Z,100.00
2022-10-03T05:41:32.630Z,100.00
2022-10-03T05:44:06.766Z,100.00
2022-10-03T05:46:56.473Z,100.00
2022-10-03T05:49:50.599Z,100.00
2022-10-03T05:52:40.501Z,100.00
2022-10-03T05:55:14.538Z,100.00
2022-10-03T05:58:14.187Z,100.00
2022-10-03T06:01:01.093Z,100.00
2022-10-03T06:03:53.116Z,100.00
2022-10-03T06:07:05.537Z,100.00
2022-10-03T06:09:58.157Z,100.00
2022-10-03T06:12:52.431Z,100.00
2022-10-03T06:15:38.635Z,100.00
2022-10-03T06:18:12.712Z,100.00
2022-10-03T06:21:25.653Z,100.00
2022-10-03T06:24:02.406Z,100.00
2022-10-03T06:26:51.015Z,100.00
2022-10-03T06:29:46.467Z,100.00
2022-10-03T06:32:24.597Z,100.00
2022-10-03T06:35:16.987Z,100.00
2022-10-03T06:38:10.287Z,100.00
2022-10-03T06:41:05.589Z,100.00
2022-10-03T06:44:18.528Z,100.00
2022-10-03T06:46:55.329Z,100.00
2022-10-03T06:49:46.756Z,100.00
2022-10-03T06:52:46.586Z,100.00
2022-10-03T06:55:51.548Z,100.00
2022-10-03T06:58:47.622Z,100.00
2022-10-03T07:01:27.650Z,100.00
2022-10-03T07:04:33.365Z,100.00
2022-10-03T07:07:19.393Z,100.00
2022-10-03T07:10:02.108Z,100.00
2022-10-03T07:12:44.819Z,100.00
2022-10-03T07:15:50.076Z,100.00
2022-10-03T07:18:43.159Z,100.00
2022-10-03T07:21:19.921Z,100.00
2022-10-03T07:24:10.610Z,100.00
2022-10-03T07:26:48.089Z,100.00
2022-10-03T07:29:35.023Z,100.00
2022-10-03T07:32:32.732Z,100.00
2022-10-03T07:35:27.373Z,100.00
2022-10-03T07:38:32.646Z,100.00
2022-10-03T07:41:19.130Z,100.00
2022-10-03T07:43:47.113Z,100.00
2022-10-03T07:46:26.848Z,100.00
2022-10-03T07:49:16.215Z,100.00
2022-10-03T07:52:17.418Z,100.00
2022-10-03T07:54:53.646Z,100.00
2022-10-03T07:57:27.995Z,100.00
2022-10-03T08:00:08.702Z,100.00
2022-10-03T08:02:57.033Z,100.00
2022-10-03T08:05:58.104Z,100.00
2022-10-03T08:09:03.241Z,98.03
2022-10-03T08:12:08.689Z,96.52
2022-10-03T08:14:53.061Z,96.55
2022-10-03T08:17:30.100Z,97.70
2022-10-03T08:20:18.642Z,97.26
2022-10-03T08:23:18.335Z,98.85
2022-10-03T08:26:13.840Z,100.00
2022-10-03T08:29:06.986Z,97.97
2022-10-03T08:31:44.387Z,100.00
2022-10-03T08:34:39.589Z,98.33
2022-10-03T08:37:44.325Z,94.10
2022-10-03T08:40:34.992Z,91.37
2022-10-03T08:43:24.293Z,86.99
2022-10-03T08:46:01.012Z,82.19
2022-10-03T08:48:55.882Z,76.31
2022-10-03T08:52:01.191Z,65.78
2022-10-03T08:54:47.849Z,64.83
2022-10-03T08:57:32.232Z,65.32
2022-10-03T09:00:22.110Z,64.83
2022-10-03T09:03:34.969Z,67.97
2022-10-03T09:06:12.001Z,61.32
2022-10-03T09:09:04.089Z,53.21
2022-10-03T09:11:32.603Z,51.83
2022-10-03T09:14:31.854Z,53.75
2022-10-03T09:17:26.975Z,52.39
2022-10-03T09:20:22.740Z,47.40
2022-10-03T09:22:59.764Z,46.26
2022-10-03T09:26:06.171Z,49.80
2022-10-03T09:28:52.970Z,49.35
2022-10-03T09:32:01.981Z,46.54
2022-10-03T09:35:10.115Z,44.60
2022-10-03T09:37:56.500Z,42.91
2022-10-03T09:40:53.203Z,44.50
2022-10-03T09:43:46.242Z,43.37
2022-10-03T09:46:36.314Z,42.18
2022-10-03T09:49:28.672Z,40.75
2022-10-03T09:52:25.287Z,37.24
2022-10-03T09:55:18.312Z,35.51
2022-10-03T09:58:09.050Z,35.70
2022-10-03T10:00:57.862Z,37.70
2022-10-03T10:03:47.317Z,39.44
2022-10-03T10:06:20.562Z,43.77
2022-10-03T10:09:21.897Z,41.40
2022-10-03T10:12:14.604Z,39.10
2022-10-03T10:14:47.905Z,36.93
2022-10-03T10:18:08.973Z,35.03
2022-10-03T10:21:06.641Z,34.13
2022-10-03T10:23:49.957Z,34.76
2022-10-03T10:26:49.750Z,35.50
2022-10-03T10:29:25.854Z,33.77
2022-10-03T10:32:21.518Z,33.60
2022-10-03T10:35:16.894Z,33.93
2022-10-03T10:38:09.738Z,35.21
2022-10-03T10:40:37.604Z,34.89
2022-10-03T10:43:59.216Z,37.05
2022-10-03T10:46:59.136Z,36.48
2022-10-03T10:49:51.902Z,32.17
2022-10-03T10:52:56.869Z,31.55
2022-10-03T10:56:08.678Z,34.20
2022-10-03T10:59:13.482Z,33.28
2022-10-03T11:02:08.590Z,32.04
2022-10-03T11:05:00.957Z,32.85
2022-10-03T11:08:03.021Z,31.97
2022-10-03T11:10:45.910Z,32.19
2022-10-03T11:13:35.618Z,33.98
2022-10-03T11:16:25.931Z,36.28
2022-10-03T11:19:14.878Z,34.61
2022-10-03T11:22:04.609Z,31.57
2022-10-03T11:24:34.960Z,31.15
2022-10-03T11:27:22.110Z,32.39
2022-10-03T11:29:52.819Z,33.57
2022-10-03T11:32:24.348Z,33.23
2022-10-03T11:34:57.647Z,35.13
2022-10-03T11:38:13.028Z,36.99
2022-10-03T11:40:53.248Z,36.10
2022-10-03T11:43:35.900Z,36.29
2022-10-03T11:46:23.108Z,36.08
2022-10-03T11:49:01.836Z,36.15
2022-10-03T11:51:58.841Z,38.19
2022-10-03T11:54:32.814Z,37.18
2022-10-03T11:57:08.517Z,35.99
2022-10-03T11:59:39.496Z,35.22
2022-10-03T12:02:31.418Z,33.67
2022-10-03T12:05:22.783Z,33.74
2022-10-03T12:08:11.612Z,37.01
2022-10-03T12:10:42.067Z,36.30
2022-10-03T12:13:17.270Z,35.50
2022-10-03T12:15:54.113Z,37.29
2022-10-03T12:18:44.874Z,37.81
2022-10-03T12:21:21.581Z,34.92
2022-10-03T12:24:25.842Z,34.35
2022-10-03T12:26:57.410Z,35.95
2022-10-03T12:29:28.123Z,34.34
2022-10-03T12:31:59.289Z,35.39
2022-10-03T12:34:45.363Z,34.72
2022-10-03T12:37:50.356Z,35.32
2022-10-03T12:40:41.942Z,33.60
2022-10-03T12:43:47.589Z,35.01
2022-10-03T12:46:34.113Z,34.38
2022-10-03T12:49:26.600Z,31.81
2022-10-03T12:51:58.889Z,33.33
2022-10-03T12:54:40.750Z,32.15
2022-10-03T12:57:39.565Z,33.37
2022-10-03T13:00:27.697Z,33.65
2022-10-03T13:03:13.102Z,30.96
2022-10-03T13:06:07.022Z,30.40
2022-10-03T13:09:22.103Z,29.94
2022-10-03T13:11:58.471Z,29.73
2022-10-03T13:14:27.855Z,31.24
2022-10-03T13:17:20.222Z,30.69
2022-10-03T13:19:58.390Z,33.81
2022-10-03T13:22:34.387Z,31.78
2022-10-03T13:25:17.808Z,29.55
2022-10-03T13:28:13.114Z,31.70
2022-10-03T13:30:58.042Z,30.92
2022-10-03T13:33:32.987Z,32.60
2022-10-03T13:36:20.672Z,29.39
2022-10-03T13:39:08.109Z,30.74
2022-10-03T13:41:52.047Z,30.25
2022-10-03T13:44:37.696Z,32.38
2022-10-03T13:47:27.022Z,30.81
2022-10-03T13:50:01.478Z,27.00
2022-10-03T13:52:48.050Z,25.41
2022-10-03T13:55:58.453Z,24.00
2022-10-03T13:58:36.094Z,24.86
2022-10-03T14:01:27.232Z,25.39
2022-10-03T14:04:19.430Z,25.10
2022-10-03T14:06:52.581Z,25.80
2022-10-03T14:09:29.157Z,30.13
2022-10-03T14:12:06.712Z,31.88
2022-10-03T14:15:09.043Z,32.80
2022-10-03T14:17:50.595Z,30.06
2022-10-03T14:20:29.341Z,27.54
2022-10-03T14:23:18.646Z,27.63
2022-10-03T14:26:00.251Z,26.72
2022-10-03T14:28:46.472Z,26.23
2022-10-03T14:31:20.410Z,29.39
2022-10-03T14:34:25.558Z,27.59
2022-10-03T14:36:52.968Z,29.08
2022-10-03T14:39:39.280Z,27.10
2022-10-03T14:42:31.315Z,26.91
2022-10-03T14:45:12.786Z,27.36
2022-10-03T14:47:43.973Z,29.20
2022-10-03T14:50:22.503Z,31.18
2022-10-03T14:53:09.193Z,32.90
2022-10-03T14:55:53.033Z,34.40
2022-10-03T14:58:32.679Z,33.25
2022-10-03T15:01:13.182Z,34.43
2022-10-03T15:04:06.996Z,31.84
2022-10-03T15:06:45.121Z,33.79
2022-10-03T15:09:17.654Z,31.49
2022-10-03T15:12:18.301Z,33.50
2022-10-03T15:15:01.654Z,35.95
2022-10-03T15:17:37.248Z,37.23
2022-10-03T15:20:06.192Z,36.36
2022-10-03T15:22:36.504Z,40.02
2022-10-03T15:25:13.913Z,43.83
2022-10-03T15:27:45.265Z,45.15
2022-10-03T15:30:31.931Z,46.93
2022-10-03T15:33:29.467Z,48.40
2022-10-03T15:36:09.515Z,52.88
2022-10-03T15:38:42.005Z,55.58
2022-10-03T15:41:50.607Z,56.49
2022-10-03T15:44:39.350Z,55.93
2022-10-03T15:47:15.147Z,55.55
2022-10-03T15:50:04.739Z,54.96
2022-10-03T15:52:43.990Z,53.78
2022-10-03T15:55:20.408Z,54.15
2022-10-03T15:57:51.097Z,59.57
2022-10-03T16:00:39.233Z,64.51
2022-10-03T16:03:17.815Z,69.77
2022-10-03T16:06:01.036Z,70.24
2022-10-03T16:08:33.475Z,69.32
2022-10-03T16:11:04.841Z,70.22
2022-10-03T16:13:38.544Z,69.30
2022-10-03T16:16:16.675Z,69.66
2022-10-03T16:18:51.961Z,69.01
2022-10-03T16:21:31.448Z,69.33
2022-10-03T16:24:03.263Z,70.98
2022-10-03T16:26:42.167Z,70.49
2022-10-03T16:29:30.863Z,71.58
2022-10-03T16:32:07.896Z,73.40
2022-10-03T16:34:41.648Z,73.14
2022-10-03T16:37:19.644Z,77.64
2022-10-03T16:40:20.432Z,77.68
2022-10-03T16:42:51.911Z,78.43
2022-10-03T16:45:31.261Z,80.84
2022-10-03T16:48:22.269Z,80.75
2022-10-03T16:50:53.482Z,81.41
2022-10-03T16:53:23.393Z,81.59
2022-10-03T16:56:08.351Z,81.88
2022-10-03T16:58:43.590Z,84.58
2022-10-03T17:01:27.213Z,84.02
2022-10-03T17:04:17.980Z,83.63
2022-10-03T17:06:48.962Z,85.73
2022-10-03T17:09:47.402Z,86.19
2022-10-03T17:12:27.578Z,87.31
2022-10-03T17:14:58.373Z,88.94
2022-10-03T17:17:30.348Z,89.08
2022-10-03T17:20:05.693Z,90.66
2022-10-03T17:22:47.231Z,91.85
2022-10-03T17:25:18.288Z,93.38
2022-10-03T17:27:51.113Z,93.21
2022-10-03T17:30:40.076Z,93.78
2022-10-03T17:33:17.015Z,96.17
2022-10-03T17:36:06.273Z,97.29
2022-10-03T17:38:50.488Z,97.69
2022-10-03T17:41:24.525Z,97.15
2022-10-03T17:44:28.539Z,97.52
2022-10-03T17:47:33.120Z,97.42
2022-10-03T17:50:02.935Z,96.98
2022-10-03T17:52:32.008Z,98.13
2022-10-03T17:55:07.072Z,99.62
2022-10-03T17:57:42.877Z,99.72
2022-10-03T18:00:19.974Z,98.61
2022-10-03T18:03:14.231Z,99.93
2022-10-03T18:05:50.134Z,100.00
2022-10-03T18:08:30.446Z,100.00
2022-10-03T18:11:02.496Z,100.00
2022-10-03T18:13:42.404Z,100.00
2022-10-03T18:16:30.877Z,100.00
2022-10-03T18:19:07.940Z,100.00
2022-10-03T18:21:41.514Z,100.00
2022-10-03T18:24:16.919Z,100.00
2022-10-03T18:26:54.343Z,100.00
2022-10-03T18:29:37.659Z,100.00
2022-10-03T18:32:11.730Z,100.00
2022-10-03T18:34:53.131Z,100.00
2022-10-03T18:37:28.263Z,100.00
2022-10-03T18:39:58.685Z,100.00
2022-10-03T18:42:28.368Z,100.00
2022-10-03T18:45:01.848Z,100.00
2022-10-03T18:47:41.543Z,100.00
2022-10-03T18:50:22.708Z,100.00
2022-10-03T18:53:04.020Z,100.00
2022-10-03T18:55:46.642Z,100.00
2022-10-03T18:58:25.992Z,100.00
2022-10-03T19:01:16.633Z,100.00
2022-10-03T19:03:58.661Z,100.00
2022-10-03T19:06:37.518Z,100.00
2022-10-03T19:09:19.628Z,100.00
2022-10-03T19:11:53.631Z,100.00
2022-10-03T19:14:47.752Z,100.00
2022-10-03T19:17:51.799Z,100.00
2022-10-03T19:20:33.401Z,100.00
2022-10-03T19:23:36.536Z,100.00
2022-10-03T19:26:13.001Z,100.00
2022-10-03T19:28:50.059Z,100.00
2022-10-03T19:31:25.336Z,100.00
2022-10-03T19:34:04.045Z,100.00
2022-10-03T19:36:37.301Z,100.00
2022-10-03T19:39:07.848Z,100.00
2022-10-03T19:41:40.780Z,100.00
2022-10-03T19:44:16.953Z,100.00
2022-10-03T19:46:48.637Z,100.00
2022-10-03T19:49:31.306Z,100.00
2022-10-03T19:52:21.293Z,100.00
2022-10-03T19:54:50.992Z,100.00
2022-10-03T19:57:28.324Z,100.00
2022-10-03T20:00:15.058Z,100.00
2022-10-03T20:02:46.162Z,100.00
2022-10-03T20:05:39.930Z,100.00
2022-10-03T20:08:46.427Z,100.00
2022-10-03T20:11:35.312Z,100.00
2022-10-03T20:14:04.101Z,100.00
2022-10-03T20:16:36.105Z,100.00
2022-10-03T20:19:07.858Z,100.00
2022-10-03T20:21:36.723Z,100.00
2022-10-03T20:24:37.216Z,100.00
2022-10-03T20:27:23.945Z,100.00
2022-10-03T20:30:21.773Z,100.00
2022-10-03T20:32:51.271Z,100.00
2022-10-03T20:35:26.042Z,100.00
2022-10-03T20:38:17.463Z,100.00
2022-10-03T20:41:09.951Z,100.00
2022-10-03T20:43:44.260Z,100.00
2022-10-03T20:46:33.117Z,100.00
2022-10-03T20:49:13.141Z,100.00
2022-10-03T20:51:56.551Z,100.00
2022-10-03T20:54:48.081Z,100.00
2022-10-03T20:57:21.426Z,100.00
2022-10-03T21:00:00.359Z,100.00
2022-10-03T21:02:50.307Z,100.00
2022-10-03T21:05:38.573Z,100.00
2022-10-03T21:08:29.750Z,100.00
2022-10-03T21:11:26.297Z,100.00
2022-10-03T21:14:29.893Z,100.00
2022-10-03T21:16:59.549Z,100.00
2022-10-03T21:19:33.164Z,100.00
2022-10-03T21:22:05.453Z,100.00
2022-10-03T21:24:46.443Z,100.00
2022-10-03T21:27:19.033Z,100.00
2022-10-03T21:30:23.944Z,100.00
2022-10-03T21:33:05.376Z,100.00
2022-10-03T21:35:36.190Z,100.00
2022-10-03T21:38:10.932Z,100.00
2022-10-03T21:41:09.491Z,100.00
2022-10-03T21:43:58.000Z,100.00
2022-10-03T21:46:53.863Z,100.00
2022-10-03T21:49:31.056Z,100.00
2022-10-03T21:52:14.458Z,100.00
2022-10-03T21:55:00.982Z,100.00
2022-10-03T21:57:44.038Z,100.00
2022-10-03T22:00:18.539Z,100.00
2022-10-03T22:03:16.876Z,100.00
2022-10-03T22:06:29.745Z,100.00
2022-10-03T22:09:04.343Z,100.00
2022-10-03T22:11:44.127Z,100.00
2022-10-03T22:14:15.741Z,100.00
2022-10-03T22:16:57.075Z,100.00
2022-10-03T22:19:31.656Z,100.00
2022-10-03T22:22:13.969Z,100.00
2022-10-03T22:24:44.683Z,100.00
2022-10-03T22:27:29.947Z,100.00
2022-10-03T22:30:06.065Z,100.00
2022-10-03T22:32:34.276Z,100.00
2022-10-03T22:35:32.895Z,100.00
2022-10-03T22:38:01.561Z,100.00
2022-10-03T22:40:30.378Z,100.00
2022-10-03T22:43:03.363Z,100.00
2022-10-03T22:45:36.038Z,100.00
2022-10-03T22:48:10.952Z,100.00
2022-10-03T22:50:41.937Z,100.00
2022-10-03T22:53:15.323Z,100.00
2022-10-03T22:55:46.883Z,100.00
2022-10-03T22:58:14.851Z,100.00
2022-10-03T23:00:45.575Z,100.00
2022-10-03T23:03:15.866Z,100.00
2022-10-03T23:05:59.163Z,100.00
2022-10-03T23:09:04.653Z,100.00
2022-10-03T23:11:35.025Z,100.00
2022-10-03T23:14:18.743Z,100.00
2022-10-03T23:16:56.199Z,100.00
2022-10-03T23:19:48.520Z,100.00
2022-10-03T23:22:18.537Z,100.00
2022-10-03T23:25:14.039Z,100.00
2022-10-03T23:28:27.010Z,100.00
2022-10-03T23:30:55.049Z,100.00
2022-10-03T23:33:32.300Z,100.00
2022-10-03T23:36:16.319Z,100.00
2022-10-03T23:38:44.629Z,100.00
2022-10-03T23:41:28.849Z,100.00
2022-10-03T23:43:58.187Z,100.00
2022-10-03T23:46:30.262Z,100.00
2022-10-03T23:49:02.190Z,100.00
2022-10-03T23:51:34.814Z,100.00
2022-10-03T23:54:06.492Z,100.00
2022-10-03T23:56:45.142Z,100.00
2022-10-03T23:59:15.648Z,100.00
